Burlington, Oregon
Current Conditions -  °F | °C
As of 1:53 AM on Thursday 23 Oct 2014 (Local Time) from KHIO Reporting Station
Overcast Overcast  
Wind Chill: 53°   Ceiling: 6000
Heat Index: 53°   Visibility: 10mi
Dew Point: 52°   Wind: 5mph
Humidity: 96%   Direction: 120°ESE
Pressure: 29.77"   Gusts: NA
Location:  45.6308°N, 122.858°W
Report Text: KHIO 230853Z AUTO 12004KT 10SM OVC060 12/11 A2977 RMK AO2 SLP080 T01170111 50001 TSNO
Loading
Personal Weather Stations






























Interactive Weather Map
Tropical Storm Tracking
New forecast layout! Learn more

10-Day Weather Forecast

Advertisements
Track Severe Weather on mobile